• Join FlightAware (Why Join?)
  • Login
  • US Flag 
09:01PM EST


 

Airport Tracker/Info


-or-


 

Live Flight TrackerFlight Track Log ✈ FSR411 ✈ 19-Jul-2014 ✈ KMIA - KCMI

Flight Track Log - Related Links

Times and Time Zones

All times are in EDT time to prevent confusion due to time zone crossing. See the FSR411 flight status page for this flight to view local times or setup timezone preferences in your user account.

Time Position Orientation Groundspeed Altitude Reporting Facility
EDT Latitude Longitude Course Direction KTS MPH feet Rate Location/Type
10:08AM 25.8033 -80.2700 82° East 161 185 700  Level Miami Center
10:09AM 25.8106 -80.2153 82° East 211 243 2,600 2,820 Climbing Miami Center
10:10AM 25.8606 -80.1725 38° Northeast 259 298 6,200 3,420 Climbing Miami Center
10:11AM 25.9142 -80.2256 318° Northwest 265 305 9,700 3,000 Climbing Miami Center
10:12AM 25.9636 -80.3025 306° West 313 360 12,400 3,000 Climbing Miami Center
10:13AM 26.0344 -80.4058 307° West 355 409 16,000 3,240 Climbing Miami Center
10:14AM 26.1033 -80.4925 312° West 378 435 19,100 2,940 Climbing Miami Center
10:15AM 26.1903 -80.5575 326° Northwest 377 434 22,100 2,700 Climbing Miami Center
10:16AM 26.2892 -80.6383 324° Northwest 386 444 24,700 2,220 Climbing Miami Center
10:17AM 26.3906 -80.7164 325° Northwest 411 473 26,800 1,980 Climbing Miami Center
10:18AM 26.4850 -80.7939 324° Northwest 422 486 28,800 1,800 Climbing Miami Center
10:19AM 26.5814 -80.8703 325° Northwest 418 481 30,600 1,620 Climbing Miami Center
10:20AM 26.6869 -80.9422 329° Northwest 423 487 32,200 1,500 Climbing Miami Center
10:21AM 26.7889 -81.0139 328° Northwest 425 489 33,700 1,380 Climbing Miami Center
10:22AM 26.8892 -81.0839 328° Northwest 426 490 35,100 1,260 Climbing Miami Center
10:23AM 26.9897 -81.1556 328° Northwest 428 493 36,400 1,200 Climbing Miami Center
10:24AM 27.0900 -81.2267 328° Northwest 428 493 37,700 1,260 Climbing Miami Center
10:25AM 27.1892 -81.2967 328° Northwest 426 490 39,100 1,080 Climbing Miami Center
10:26AM 27.3075 -81.3808 328° Northwest 416 479 40,000 420 Climbing Miami Center
10:27AM 27.4133 -81.4550 328° Northwest 423 487 40,000  Level Miami Center
10:28AM 27.5197 -81.5308 328° Northwest 430 495 40,000  Level Miami Center
10:29AM 27.6161 -81.6003 327° Northwest 428 493 40,000  Level Miami Center
10:30AM 27.7208 -81.6739 328° Northwest 426 490 40,000  Level Miami Center
10:32AM 27.8239 -81.7481 328° Northwest 426 490 40,000  Level Miami Center
10:33AM 27.9142 -81.8131 328° Northwest 428 493 40,000  Level Miami Center
10:34AM 28.0350 -81.8992 328° Northwest 428 493 40,000  Level Miami Center
10:35AM 28.1392 -81.9561 334° Northwest 417 480 40,000  Level Miami Center
10:36AM 28.2469 -82.0036 339° North 415 478 40,000  Level Miami Center
10:37AM 28.3600 -82.0550 338° Northwest 414 476 40,000  Level Miami Center
10:38AM 28.4656 -82.1056 337° Northwest 413 475 40,000  Level Miami Center
10:39AM 28.5728 -82.1550 338° Northwest 414 476 40,000  Level Miami Center
10:40AM 28.6806 -82.2053 338° Northwest 415 478 40,000  Level Miami Center
10:41AM 28.8122 -82.2656 338° Northwest 419 482 40,000  Level Miami Center
10:42AM 28.9239 -82.3178 338° Northwest 425 489 40,000  Level Miami Center
10:43AM 29.0275 -82.3653 338° Northwest 413 475 40,000  Level Jacksonville Center
10:44AM 29.1361 -82.4172 337° Northwest 413 475 40,000  Level Jacksonville Center
10:45AM 29.2469 -82.4667 339° North 413 475 40,000  Level Jacksonville Center
10:46AM 29.3536 -82.5186 337° Northwest 413 475 40,000  Level Jacksonville Center
10:47AM 29.4622 -82.5681 338° Northwest 413 475 40,000  Level Jacksonville Center
10:48AM 29.5711 -82.6181 338° Northwest 418 481 40,000  Level Jacksonville Center
10:49AM 29.6692 -82.6703 335° Northwest 423 487 40,000  Level Jacksonville Center
10:50AM 29.7778 -82.7228 337° Northwest 423 487 40,000  Level Jacksonville Center
10:51AM 29.8989 -82.7728 340° North 418 481 40,000  Level Jacksonville Center
10:52AM 29.9931 -82.8278 333° Northwest 413 475 40,000  Level Jacksonville Center
10:53AM 30.1161 -82.8781 341° North 420 483 40,000  Level Jacksonville Center
10:54AM 30.2247 -82.9311 337° Northwest 420 483 40,000  Level Jacksonville Center
10:55AM 30.3292 -82.9817 337° Northwest 420 483 40,000  Level Jacksonville Center
10:56AM 30.4397 -83.0347 338° Northwest 414 476 40,000  Level Jacksonville Center
10:57AM 30.5483 -83.0881 337° Northwest 414 476 40,000  Level Jacksonville Center
10:58AM 30.6567 -83.1389 338° Northwest 414 476 40,000  Level Jacksonville Center
10:59AM 30.7653 -83.1925 337° Northwest 414 476 40,000 420 Level Jacksonville Center
11:00AM 30.8569 -83.2386 337° Northwest 406 467 40,900 900 Climbing Jacksonville Center
11:01AM 30.9611 -83.2922 336° Northwest 401 461 41,900 960 Climbing Jacksonville Center
11:02AM 31.0653 -83.3414 338° Northwest 401 461 42,900 540 Climbing Jacksonville Center
11:03AM 31.1675 -83.3878 339° North 395 455 43,000  Climbing Jacksonville Center
11:04AM 31.3619 -83.4583 343° North 412 474 43,000  Level Atlanta Center
11:06AM 31.4717 -83.4958 344° North 412 474 43,000  Level Atlanta Center
11:07AM 31.5786 -83.5383 341° North 410 472 43,000  Level Atlanta Center
11:08AM 31.6781 -83.5844 338° Northwest 407 468 43,000  Level Atlanta Center
11:09AM 31.8019 -83.6472 337° Northwest 405 466 43,000  Level Atlanta Center
11:10AM 31.9108 -83.6986 338° Northwest 433 498 43,000  Level Atlanta Center
11:11AM 32.0142 -83.7517 336° Northwest 415 478 43,000  Level Atlanta Center
11:12AM 32.1167 -83.8036 337° Northwest 405 466 43,000  Level Atlanta Center
11:13AM 32.2206 -83.8564 337° Northwest 405 466 43,000  Level Atlanta Center
11:14AM 32.3456 -83.9211 336° Northwest 406 467 43,000  Level Atlanta Center
11:15AM 32.4508 -83.9744 337° Northwest 409 471 43,000  Level Atlanta Center
11:16AM 32.5553 -84.0281 337° Northwest 410 472 43,000  Level Atlanta Center
11:17AM 32.6611 -84.0836 336° Northwest 411 473 43,000  Level Atlanta Center
11:18AM 32.7658 -84.1381 336° Northwest 411 473 43,000  Level Atlanta Center
11:19AM 32.8722 -84.1931 337° Northwest 412 474 43,000  Level Atlanta Center
11:20AM 32.9867 -84.2483 338° Northwest 413 475 43,000  Level Atlanta Center
11:21AM 33.0933 -84.3044 336° Northwest 414 476 43,000  Level Atlanta Center
11:22AM 33.2214 -84.3717 336° Northwest 419 482 43,000  Level Atlanta Center
11:23AM 33.3283 -84.4278 336° Northwest 418 481 43,000  Level Atlanta Center
11:24AM 33.4339 -84.4856 335° Northwest 418 481 43,000  Level Atlanta Center
11:25AM 33.5406 -84.5411 337° Northwest 418 481 43,000  Level Atlanta Center
11:26AM 33.6594 -84.6022 337° Northwest 418 481 43,000  Level Atlanta Center
11:27AM 33.7675 -84.6600 336° Northwest 421 484 43,000  Level Atlanta Center
11:28AM 33.8761 -84.7178 336° Northwest 421 484 43,000  Level Atlanta Center
11:29AM 33.9850 -84.7742 337° Northwest 423 487 43,000  Level Atlanta Center
11:30AM 34.0942 -84.8342 336° Northwest 428 493 43,000  Level Atlanta Center
11:31AM 34.2222 -84.9022 336° Northwest 433 498 43,000  Level Atlanta Center
11:32AM 34.3311 -84.9611 336° Northwest 430 495 43,000  Level Atlanta Center
11:33AM 34.4400 -85.0197 336° Northwest 431 496 43,000  Level Atlanta Center
11:35AM 34.5442 -85.0931 330° Northwest 431 496 43,000  Level Atlanta Center
11:36AM 34.6447 -85.1839 323° Northwest 429 494 43,000  Level Atlanta Center
11:37AM 34.7414 -85.2706 324° Northwest 429 494 43,000  Level Atlanta Center
11:38AM 34.8583 -85.3669 326° Northwest 427 491 43,000  Level Atlanta Center
11:39AM 34.9536 -85.4483 325° Northwest 420 483 43,000  Level Atlanta Center
11:40AM 35.0481 -85.5294 325° Northwest 413 475 43,000  Level Atlanta Center
11:41AM 35.1433 -85.6103 325° Northwest 411 473 43,000  Level Atlanta Center
11:42AM 35.2417 -85.6886 327° Northwest 415 478 43,000  Level Atlanta Center
11:43AM 35.3486 -85.7464 336° Northwest 420 483 43,000  Level Atlanta Center
11:44AM 35.4808 -85.8119 338° Northwest 424 488 43,000  Level Atlanta Center
11:45AM 35.5908 -85.8672 338° Northwest 424 488 43,000  Level Atlanta Center
11:46AM 35.6989 -85.9233 337° Northwest 423 487 43,000  Level Atlanta Center
11:47AM 35.7894 -85.9694 338° Northwest 423 487 43,000  Level Indianapolis Center
11:48AM 35.8986 -86.0253 337° Northwest 423 487 43,000  Level Indianapolis Center
11:49AM 36.0072 -86.0814 337° Northwest 423 487 43,000  Level Indianapolis Center
11:50AM 36.1158 -86.1375 337° Northwest 423 487 43,000  Level Indianapolis Center
11:51AM 36.2242 -86.1919 338° Northwest 422 486 43,000  Level Indianapolis Center
11:52AM 36.3511 -86.2575 337° Northwest 421 484 43,000  Level Indianapolis Center
11:53AM 36.4589 -86.3133 337° Northwest 421 484 43,000  Level Indianapolis Center
11:54AM 36.5678 -86.3700 337° Northwest 421 484 43,000  Level Indianapolis Center
11:55AM 36.6753 -86.4267 337° Northwest 421 484 43,000  Level Indianapolis Center
11:56AM 36.8211 -86.5019 338° Northwest 421 484 43,000  Level Memphis Center
11:57AM 36.9297 -86.5603 337° Northwest 421 484 43,000  Level Memphis Center
11:58AM 37.0583 -86.6281 337° Northwest 423 487 43,000  Level Memphis Center
11:59AM 37.1681 -86.6869 337° Northwest 424 488 43,000  Level Memphis Center
12:01PM 37.2786 -86.7456 337° Northwest 425 489 43,000  Level Memphis Center
12:02PM 37.3886 -86.8044 337° Northwest 425 489 43,000  Level Memphis Center
12:02PM 37.4436 -86.8336 337° Northwest 425 489 43,000  Level Indianapolis Center
12:03PM 37.5558 -86.8939 337° Northwest 425 489 43,000  Level Indianapolis Center
12:04PM 37.6664 -86.9533 337° Northwest 426 490 43,000 -300 Level Indianapolis Center
12:05PM 37.7758 -87.0128 337° Northwest 426 490 42,400 -900 Descending Indianapolis Center
12:06PM 37.8828 -87.0711 337° Northwest 421 484 41,200 -1,620 Descending Indianapolis Center
12:07PM 38.0122 -87.1417 337° Northwest 418 481 39,200 -1,800 Descending Indianapolis Center
12:08PM 38.1114 -87.2203 328° Northwest 416 479 37,600 -1,620 Descending Indianapolis Center
12:09PM 38.2014 -87.3186 319° Northwest 416 479 36,000 -1,620 Descending Indianapolis Center
12:10PM 38.2922 -87.4197 319° Northwest 421 484 34,400 -1,020 Descending Indianapolis Center
12:11PM 38.3814 -87.5208 318° Northwest 421 484 34,000 -840 Descending Indianapolis Center
12:12PM 38.4700 -87.6203 319° Northwest 422 486 32,800 -1,680 Descending Indianapolis Center
12:13PM 38.5850 -87.6819 337° Northwest 442 509 30,600 -2,340 Descending Indianapolis Center
12:14PM 38.7072 -87.7283 344° North 451 519 28,100 -2,460 Descending Indianapolis Center
12:15PM 38.8281 -87.7764 343° North 451 519 25,600 -2,400 Descending Indianapolis Center
12:16PM 38.9469 -87.8247 342° North 450 518 23,200 -2,460 Descending Indianapolis Center
12:17PM 39.0611 -87.8717 342° North 436 502 20,600 -2,520 Descending Indianapolis Center
12:18PM 39.1706 -87.9164 342° North 418 481 18,100 -2,460 Descending Indianapolis Center
12:20PM 39.2781 -87.9608 342° North 410 472 15,700 -2,400 Descending Indianapolis Center
12:21PM 39.3936 -88.0086 342° North 393 452 13,200 -2,220 Descending Indianapolis Center
12:22PM 39.4931 -88.0481 343° North 379 436 11,200 -1,320 Descending Indianapolis Center
12:23PM 39.5831 -88.0839 343° North 352 405 10,600 -1,020 Descending Indianapolis Center
12:24PM 39.6603 -88.1117 345° North 306 352 9,200 -1,440 Descending Indianapolis Center
12:25PM 39.7364 -88.1408 344° North 289 333 7,700 -1,200 Descending Indianapolis Center
12:26PM 39.8081 -88.1733 341° North 280 322 6,800 -720 Descending Indianapolis Center
12:27PM 39.8908 -88.2142 339° North 274 315 6,300 -1,440 Descending Indianapolis Center
12:27PM 39.9183 -88.2639 306° West 268 308 4,400 -1,680 Descending Chicago Center
12:28PM 39.9689 -88.3331 314° West 258 297 3,400 -1,020 Descending Chicago Center
12:30PM 40.0333 -88.2667 346° North  Level FlightAware Approximate
12:37PM 40.0388 -88.2778 346° North  Level Estimated
12:38PM 40.0388 -88.2778 346° North  Level Estimated
12:39PM 40.0388 -88.2778 346° North  Level Estimated